Time;durP1;ratioP1;P1;durP2;ratioP2;P2;SDS_P1;SDS_P2;PMS_P1;PMS_P2;Temp;Humidity;BMP_temperature;BMP_pressure;BME280_temperature;BME280_humidity;BME280_pressure;Samples;Min_cycle;Max_cycle;Signal;HPM_P1;HPM_P2
2021/03/07 00:02:10;;;;;;;9.53;6.00;;;0.00;75.50;;;;;;5001854;28;20229;-82
2021/03/07 00:04:37;;;;;;;8.50;6.17;;;0.00;75.40;;;;;;5005564;28;20210;-82
2021/03/07 00:07:04;;;;;;;14.00;6.73;;;-0.10;74.70;;;;;;5004518;28;20259;-82
2021/03/07 00:09:30;;;;;;;11.67;6.73;;;-0.10;75.00;;;;;;5003705;28;20199;-82
2021/03/07 00:11:56;;;;;;;10.23;5.70;;;-0.10;75.20;;;;;;5001606;28;20226;-81
2021/03/07 00:14:23;;;;;;;11.77;6.60;;;-0.10;75.20;;;;;;5002678;28;20222;-82
2021/03/07 00:16:49;;;;;;;11.40;6.50;;;-0.20;75.20;;;;;;5001889;28;20670;-82
2021/03/07 00:19:16;;;;;;;8.43;6.30;;;-0.20;75.50;;;;;;5003928;28;20301;-82
2021/03/07 00:21:43;;;;;;;8.80;6.63;;;-0.20;75.50;;;;;;4995560;28;20247;-83
2021/03/07 00:24:10;;;;;;;9.93;6.30;;;-0.20;75.90;;;;;;5002551;28;20728;-82
2021/03/07 00:26:36;;;;;;;11.70;6.63;;;-0.10;75.80;;;;;;5004233;28;20229;-82
2021/03/07 00:29:03;;;;;;;11.20;6.67;;;-0.20;76.20;;;;;;5008805;28;20643;-83
2021/03/07 00:31:30;;;;;;;14.77;6.87;;;-0.10;76.90;;;;;;5007910;28;20232;-82
2021/03/07 00:33:56;;;;;;;9.67;6.83;;;-0.20;77.20;;;;;;5003413;28;20211;-82
2021/03/07 00:36:22;;;;;;;11.23;6.63;;;-0.20;76.20;;;;;;5004825;28;20622;-82
2021/03/07 00:38:50;;;;;;;9.83;6.43;;;-0.30;76.10;;;;;;5005113;28;20214;-82
2021/03/07 00:41:16;;;;;;;10.07;6.50;;;-0.30;76.20;;;;;;5004460;28;20608;-82
2021/03/07 00:43:42;;;;;;;13.33;6.93;;;-0.40;76.80;;;;;;5006633;28;20249;-82
2021/03/07 00:46:09;;;;;;;10.13;7.10;;;-0.50;77.00;;;;;;5003536;28;20224;-82
2021/03/07 00:48:35;;;;;;;10.70;6.60;;;-0.60;77.60;;;;;;5004127;28;20198;-82
2021/03/07 00:51:02;;;;;;;10.80;7.10;;;-0.50;77.80;;;;;;5007235;28;20226;-82
2021/03/07 00:53:28;;;;;;;10.00;6.57;;;-0.50;78.60;;;;;;5002776;28;20646;-82
2021/03/07 00:55:55;;;;;;;9.17;6.50;;;-0.50;78.60;;;;;;5004038;28;20234;-82
2021/03/07 00:58:22;;;;;;;9.30;6.53;;;-0.40;77.40;;;;;;4997907;28;20195;-82
2021/03/07 01:00:48;;;;;;;8.90;5.93;;;-0.40;76.20;;;;;;5005195;28;20241;-82
2021/03/07 01:03:15;;;;;;;9.73;6.30;;;-0.50;75.30;;;;;;4996687;28;20736;-82
2021/03/07 01:05:42;;;;;;;11.47;6.10;;;-0.40;76.00;;;;;;5008056;28;20710;-82
2021/03/07 01:08:08;;;;;;;9.33;5.83;;;-0.50;74.90;;;;;;4999993;28;20260;-82
2021/03/07 01:10:37;;;;;;;9.47;6.30;;;-0.50;75.00;;;;;;5007187;28;20677;-82
2021/03/07 01:13:07;;;;;;;8.43;6.20;;;-0.50;74.70;;;;;;5003996;28;20246;-82
2021/03/07 01:15:33;;;;;;;11.00;6.37;;;-0.50;74.90;;;;;;5004336;28;20231;-82
2021/03/07 01:18:00;;;;;;;10.37;6.43;;;-0.50;75.40;;;;;;5017654;28;20207;-82
2021/03/07 01:20:27;;;;;;;9.70;6.20;;;-0.50;75.90;;;;;;5001858;28;20288;-82
2021/03/07 01:22:54;;;;;;;11.10;6.77;;;-0.60;75.90;;;;;;5002040;28;20223;-82
2021/03/07 01:25:22;;;;;;;7.83;6.23;;;-0.60;76.40;;;;;;5006760;28;20227;-82
2021/03/07 01:27:48;;;;;;;10.33;6.47;;;-0.60;76.50;;;;;;5005294;28;20195;-82
2021/03/07 01:30:18;;;;;;;9.03;6.17;;;-0.60;77.00;;;;;;5000924;28;20649;-82
2021/03/07 01:32:45;;;;;;;9.80;6.33;;;-0.60;76.90;;;;;;4998868;28;20207;-82
2021/03/07 01:35:12;;;;;;;9.80;6.23;;;-0.60;76.90;;;;;;4999985;28;20337;-82
2021/03/07 01:37:39;;;;;;;9.10;6.43;;;-0.60;77.00;;;;;;5000518;28;20673;-83
2021/03/07 01:40:08;;;;;;;8.73;6.40;;;-0.60;77.00;;;;;;5006497;28;20259;-81
2021/03/07 01:42:34;;;;;;;8.60;6.50;;;-0.60;77.00;;;;;;5006721;28;20198;-82
2021/03/07 01:45:01;;;;;;;9.17;7.03;;;-0.60;76.70;;;;;;5009945;28;20196;-83
2021/03/07 01:47:31;;;;;;;8.90;6.90;;;-0.70;76.20;;;;;;5013543;28;21005;-81
2021/03/07 01:50:01;;;;;;;9.83;6.67;;;-0.70;76.60;;;;;;5012051;28;20219;-83
2021/03/07 01:52:27;;;;;;;8.93;6.33;;;-0.70;76.70;;;;;;5013361;28;20195;-82
2021/03/07 01:54:54;;;;;;;11.13;6.63;;;-0.70;76.60;;;;;;5003546;28;20215;-81
2021/03/07 01:57:22;;;;;;;9.63;6.33;;;-0.60;76.70;;;;;;5003247;28;20196;-82
2021/03/07 01:59:50;;;;;;;9.53;6.27;;;-0.60;76.60;;;;;;5007250;28;20260;-81
2021/03/07 02:02:16;;;;;;;12.20;7.00;;;-0.50;76.80;;;;;;5000604;28;20233;-82
2021/03/07 02:04:43;;;;;;;10.57;6.70;;;-0.40;77.10;;;;;;5007946;28;20207;-82
2021/03/07 02:07:10;;;;;;;9.43;6.97;;;-0.40;77.10;;;;;;5003399;28;20227;-82
2021/03/07 02:09:37;;;;;;;9.17;6.20;;;-0.40;77.00;;;;;;5002704;28;20547;-82
2021/03/07 02:12:04;;;;;;;8.27;6.20;;;-0.40;77.10;;;;;;5024175;28;20226;-82
2021/03/07 02:14:32;;;;;;;10.97;6.57;;;-0.50;77.20;;;;;;5008462;28;20227;-82
2021/03/07 02:16:59;;;;;;;12.20;7.17;;;-0.50;77.40;;;;;;5004384;28;20226;-82
2021/03/07 02:19:30;;;;;;;9.70;6.77;;;-0.50;77.10;;;;;;5006069;28;20201;-81
2021/03/07 02:21:59;;;;;;;8.90;6.77;;;-0.50;78.30;;;;;;5008162;28;20235;-82
2021/03/07 02:24:26;;;;;;;11.80;6.57;;;-0.50;78.50;;;;;;5012583;28;20221;-81
2021/03/07 02:27:05;;;;;;;8.87;6.40;;;-0.50;78.50;;;;;;5013005;28;20226;-81
2021/03/07 02:29:31;;;;;;;8.50;5.77;;;-0.50;78.70;;;;;;5009905;28;20204;-81
2021/03/07 02:32:00;;;;;;;7.97;6.17;;;-0.60;79.40;;;;;;5010630;28;20255;-81
2021/03/07 02:34:32;;;;;;;9.80;6.43;;;-0.60;78.80;;;;;;5011293;28;20696;-82
2021/03/07 02:37:00;;;;;;;10.03;6.47;;;-0.60;79.50;;;;;;5001361;28;20227;-82
2021/03/07 02:39:31;;;;;;;10.03;6.60;;;-0.60;78.70;;;;;;5005883;28;20205;-83
2021/03/07 02:42:02;;;;;;;8.50;6.67;;;-0.70;78.30;;;;;;4999767;28;20223;-81
2021/03/07 02:44:31;;;;;;;9.90;6.90;;;-0.80;78.80;;;;;;5009313;28;20210;-82
2021/03/07 02:46:59;;;;;;;9.67;7.00;;;-0.90;79.30;;;;;;5005236;28;20226;-81
2021/03/07 02:49:26;;;;;;;10.37;7.10;;;-0.90;79.60;;;;;;5011827;28;20221;-82
2021/03/07 02:51:54;;;;;;;10.13;6.60;;;-0.80;79.70;;;;;;5006497;28;20756;-81
2021/03/07 02:54:23;;;;;;;11.93;7.10;;;-0.80;79.70;;;;;;4996498;28;20230;-82
2021/03/07 02:56:53;;;;;;;11.03;7.10;;;-0.80;80.50;;;;;;5003641;28;20303;-82
2021/03/07 02:59:21;;;;;;;12.73;7.10;;;-0.80;80.10;;;;;;5003108;28;20258;-82
2021/03/07 03:01:52;;;;;;;11.13;7.73;;;-0.80;80.60;;;;;;5001715;28;20707;-82
2021/03/07 03:04:19;;;;;;;8.43;6.83;;;-0.90;80.20;;;;;;5010540;28;20203;-82
2021/03/07 03:06:46;;;;;;;11.73;7.30;;;-1.00;81.20;;;;;;5005089;28;20238;-82
2021/03/07 03:09:13;;;;;;;11.07;7.90;;;-1.00;82.10;;;;;;4998744;28;20248;-82
2021/03/07 03:11:41;;;;;;;10.43;7.37;;;-1.10;81.60;;;;;;4996890;28;20237;-82
2021/03/07 03:14:09;;;;;;;10.00;7.03;;;-1.10;81.80;;;;;;5004934;28;20205;-81
2021/03/07 03:16:36;;;;;;;11.63;7.40;;;-1.00;81.30;;;;;;5004257;28;20260;-82
2021/03/07 03:19:07;;;;;;;10.50;6.87;;;-1.00;81.40;;;;;;5007056;28;20202;-82
2021/03/07 03:21:34;;;;;;;13.10;7.50;;;-1.00;81.30;;;;;;5004893;28;20227;-82
2021/03/07 03:24:01;;;;;;;11.17;7.33;;;-1.00;81.50;;;;;;5005216;28;20694;-83
2021/03/07 03:26:28;;;;;;;12.27;7.00;;;-1.00;81.00;;;;;;5002859;28;20273;-81
2021/03/07 03:28:56;;;;;;;10.13;7.23;;;-1.00;81.70;;;;;;5006505;28;20207;-82
2021/03/07 03:31:23;;;;;;;10.20;7.03;;;-1.10;81.20;;;;;;5004565;28;20263;-82
2021/03/07 03:33:49;;;;;;;9.30;7.20;;;-1.10;81.40;;;;;;5003769;28;20221;-82
2021/03/07 03:36:16;;;;;;;9.27;6.90;;;-1.10;81.50;;;;;;4999550;28;20723;-81
2021/03/07 03:38:47;;;;;;;10.03;6.80;;;-1.20;82.80;;;;;;5001341;28;20574;-82
2021/03/07 03:41:15;;;;;;;10.43;6.47;;;-1.30;82.80;;;;;;5004339;28;20590;-82
2021/03/07 03:43:43;;;;;;;10.43;7.10;;;-1.30;83.10;;;;;;5002557;28;20724;-82
2021/03/07 03:46:11;;;;;;;10.83;6.80;;;-1.30;83.20;;;;;;4993479;28;20699;-82
2021/03/07 03:48:40;;;;;;;9.97;7.13;;;-1.30;83.70;;;;;;5005374;28;20207;-82
2021/03/07 03:51:09;;;;;;;13.27;7.00;;;-1.40;84.90;;;;;;4998250;28;20230;-83
2021/03/07 03:53:36;;;;;;;10.53;6.90;;;-1.40;84.10;;;;;;4996232;28;20206;-81
2021/03/07 03:56:04;;;;;;;11.87;6.63;;;-1.30;85.00;;;;;;5002324;28;20561;-81
2021/03/07 03:58:37;;;;;;;10.13;6.13;;;-1.30;84.40;;;;;;5007482;28;20201;-83
2021/03/07 04:01:05;;;;;;;12.20;7.17;;;-1.30;85.00;;;;;;5005495;28;20233;-81
2021/03/07 04:03:31;;;;;;;9.60;6.87;;;-1.30;83.90;;;;;;5005068;28;20573;-81
2021/03/07 04:05:59;;;;;;;9.80;6.73;;;-1.30;83.70;;;;;;5019234;28;20230;-84
2021/03/07 04:08:26;;;;;;;10.60;6.97;;;-1.30;83.90;;;;;;5016461;28;20539;-83
2021/03/07 04:10:52;;;;;;;10.47;7.07;;;-1.40;84.10;;;;;;5003770;28;20225;-85
2021/03/07 04:13:25;;;;;;;10.00;6.80;;;-1.40;84.80;;;;;;5006649;28;20218;-84
2021/03/07 04:15:52;;;;;;;9.70;6.80;;;-1.50;84.80;;;;;;5005703;28;20234;-83
2021/03/07 04:18:24;;;;;;;13.93;7.40;;;-1.50;84.80;;;;;;5024421;28;20227;-83
2021/03/07 04:20:51;;;;;;;10.93;6.93;;;-1.50;84.80;;;;;;5004180;28;20725;-84
2021/03/07 04:23:19;;;;;;;10.70;6.93;;;-1.50;84.80;;;;;;5006980;28;20267;-84
2021/03/07 04:25:45;;;;;;;10.40;6.70;;;-1.50;84.80;;;;;;5004118;28;20251;-83
2021/03/07 04:28:12;;;;;;;10.43;6.77;;;-1.40;85.00;;;;;;4999490;28;20210;-83
2021/03/07 04:30:39;;;;;;;11.00;6.83;;;-1.40;84.90;;;;;;5001153;28;20312;-84
2021/03/07 04:33:07;;;;;;;9.10;6.50;;;-1.50;84.80;;;;;;5006015;28;20200;-83
2021/03/07 04:35:34;;;;;;;9.07;6.33;;;-1.60;85.20;;;;;;4996333;28;20228;-84
2021/03/07 04:38:01;;;;;;;12.70;6.60;;;-1.60;84.80;;;;;;5004570;28;20227;-83
2021/03/07 04:40:28;;;;;;;9.73;6.83;;;-1.60;84.80;;;;;;5000389;28;20639;-83
2021/03/07 04:42:55;;;;;;;8.23;6.10;;;-1.50;84.90;;;;;;5003790;28;20480;-83
2021/03/07 04:45:22;;;;;;;8.43;6.30;;;-1.50;84.80;;;;;;5004508;28;20249;-85
2021/03/07 04:47:49;;;;;;;8.90;6.77;;;-1.50;84.80;;;;;;5005680;28;20200;-83
2021/03/07 04:50:15;;;;;;;10.43;6.47;;;-1.50;84.80;;;;;;5006062;28;20229;-83
2021/03/07 04:52:42;;;;;;;9.13;6.83;;;-1.60;84.80;;;;;;5000052;28;20229;-84
2021/03/07 04:55:10;;;;;;;11.50;6.37;;;-1.50;84.80;;;;;;5005051;28;20226;-83
2021/03/07 04:57:38;;;;;;;10.10;6.93;;;-1.60;84.80;;;;;;5014242;28;20217;-83
2021/03/07 05:00:06;;;;;;;7.77;5.80;;;-1.60;84.80;;;;;;5007036;28;20211;-84
2021/03/07 05:02:32;;;;;;;8.30;5.93;;;-1.60;84.80;;;;;;5005612;28;20196;-83
2021/03/07 05:04:58;;;;;;;9.90;6.37;;;-1.70;84.70;;;;;;5006259;28;20525;-83
2021/03/07 05:07:25;;;;;;;8.57;6.50;;;-1.80;85.80;;;;;;5001447;28;20204;-83
2021/03/07 05:09:51;;;;;;;8.57;5.77;;;-1.90;86.40;;;;;;5004777;28;20202;-83
2021/03/07 05:12:17;;;;;;;10.03;6.13;;;-1.80;86.70;;;;;;5006060;28;20260;-84
2021/03/07 05:14:45;;;;;;;12.10;6.60;;;-1.80;86.30;;;;;;5008039;28;20481;-83
2021/03/07 05:17:11;;;;;;;8.13;6.10;;;-1.80;86.70;;;;;;5013327;28;20770;-85
2021/03/07 05:19:37;;;;;;;9.87;6.70;;;-1.80;87.80;;;;;;5007201;28;20208;-83
2021/03/07 05:22:04;;;;;;;7.80;5.80;;;-1.80;87.50;;;;;;4999372;28;20232;-83
2021/03/07 05:24:30;;;;;;;8.90;5.93;;;-1.80;86.90;;;;;;5008021;28;20207;-83
2021/03/07 05:27:05;;;;;;;7.53;5.97;;;-1.80;87.30;;;;;;5005069;28;20228;-84
2021/03/07 05:29:32;;;;;;;8.77;6.10;;;-1.80;86.90;;;;;;5001344;28;20198;-83
2021/03/07 05:31:59;;;;;;;9.27;6.20;;;-1.70;86.20;;;;;;5002336;28;20227;-83
2021/03/07 05:34:25;;;;;;;7.53;5.90;;;-1.80;86.40;;;;;;5004124;28;20203;-83
2021/03/07 05:36:52;;;;;;;9.17;6.07;;;-1.90;87.00;;;;;;5005830;28;20223;-83
2021/03/07 05:39:19;;;;;;;7.73;5.63;;;-1.80;87.60;;;;;;5006924;28;20856;-83
2021/03/07 05:41:46;;;;;;;8.73;6.30;;;-1.80;87.90;;;;;;5004155;28;20245;-83
2021/03/07 05:44:12;;;;;;;8.00;6.10;;;-1.90;87.40;;;;;;5005182;28;20200;-83
2021/03/07 05:46:40;;;;;;;7.83;6.13;;;-1.90;87.40;;;;;;5003753;28;20768;-83
2021/03/07 05:49:08;;;;;;;9.40;6.20;;;-1.90;87.90;;;;;;5003902;28;20202;-83
2021/03/07 05:51:34;;;;;;;9.90;6.10;;;-1.90;87.20;;;;;;5000163;28;20228;-83
2021/03/07 05:54:01;;;;;;;7.77;6.20;;;-1.80;87.40;;;;;;4999339;28;20214;-83
2021/03/07 05:56:28;;;;;;;7.90;5.83;;;-1.70;87.40;;;;;;5002188;28;20233;-83
2021/03/07 05:58:56;;;;;;;8.30;6.13;;;-1.70;87.20;;;;;;5006518;28;20255;-84
2021/03/07 06:01:23;;;;;;;9.83;6.40;;;-1.70;86.60;;;;;;5001276;28;20229;-83
2021/03/07 06:03:49;;;;;;;8.23;6.03;;;-1.70;86.70;;;;;;4998064;28;20197;-83
2021/03/07 06:06:16;;;;;;;7.53;5.70;;;-1.70;86.10;;;;;;5002093;28;20223;-83
2021/03/07 06:08:43;;;;;;;8.20;6.00;;;-1.70;86.10;;;;;;5002753;28;20216;-83
2021/03/07 06:11:30;;;;;;;6.77;5.80;;;-1.70;86.80;;;;;;5001710;28;20231;-83
2021/03/07 06:13:56;;;;;;;7.97;5.67;;;-1.60;86.40;;;;;;5000854;28;20228;-83
2021/03/07 06:16:23;;;;;;;9.03;6.40;;;-1.60;85.80;;;;;;4999520;28;20238;-83
2021/03/07 06:18:50;;;;;;;9.13;6.00;;;-1.60;85.50;;;;;;5001766;28;20542;-83
2021/03/07 06:21:31;;;;;;;7.93;5.67;;;-1.60;85.60;;;;;;5008943;28;21166;-83
2021/03/07 06:23:58;;;;;;;7.63;5.80;;;-1.60;84.80;;;;;;4998211;28;20234;-84
2021/03/07 06:26:24;;;;;;;8.77;5.80;;;-1.60;84.90;;;;;;4997919;28;20235;-83
2021/03/07 06:29:06;;;;;;;8.53;5.80;;;-1.50;84.90;;;;;;5003514;28;20196;-83
2021/03/07 06:31:33;;;;;;;8.27;5.93;;;-1.40;85.00;;;;;;5001530;28;20225;-83
2021/03/07 06:34:00;;;;;;;10.73;6.37;;;-1.40;85.00;;;;;;4999977;28;20209;-83
2021/03/07 06:36:29;;;;;;;6.90;5.50;;;-1.30;85.00;;;;;;4999468;28;20236;-83
2021/03/07 06:38:57;;;;;;;9.63;6.40;;;-1.20;85.10;;;;;;4999395;28;20202;-80
2021/03/07 06:41:25;;;;;;;9.93;6.30;;;-1.10;85.10;;;;;;4999396;28;20230;-83
2021/03/07 06:43:52;;;;;;;9.63;6.00;;;-1.00;85.20;;;;;;5005305;28;20555;-83
2021/03/07 06:46:29;;;;;;;9.40;6.90;;;-0.90;86.10;;;;;;5008886;28;20231;-84
2021/03/07 06:48:56;;;;;;;9.97;6.73;;;-0.90;85.20;;;;;;4993297;28;20197;-84
2021/03/07 06:51:26;;;;;;;8.60;5.90;;;-0.80;85.30;;;;;;5003323;28;20254;-83
2021/03/07 06:53:54;;;;;;;8.20;5.53;;;-0.70;85.10;;;;;;5005809;28;20202;-83
2021/03/07 06:56:40;;;;;;;7.97;5.77;;;-0.70;83.90;;;;;;5002241;28;20810;-84
2021/03/07 06:59:15;;;;;;;11.10;7.07;;;-0.60;83.30;;;;;;5001450;28;20201;-84
2021/03/07 07:01:43;;;;;;;8.80;6.60;;;-0.50;84.00;;;;;;5005794;28;20238;-83
2021/03/07 07:04:10;;;;;;;9.30;6.20;;;-0.50;83.80;;;;;;5006698;28;20628;-83
2021/03/07 07:06:38;;;;;;;11.90;7.40;;;-0.50;83.90;;;;;;5000571;28;20228;-84
2021/03/07 07:09:08;;;;;;;9.00;6.53;;;-0.40;83.70;;;;;;5006712;28;20194;-84
2021/03/07 07:11:45;;;;;;;10.83;7.20;;;-0.20;84.60;;;;;;4994046;28;20562;-83
2021/03/07 07:14:12;;;;;;;10.97;7.23;;;-0.10;83.60;;;;;;5002337;28;20207;-83
2021/03/07 07:16:39;;;;;;;11.50;7.90;;;0.10;83.60;;;;;;4998669;28;21168;-84
2021/03/07 07:19:06;;;;;;;11.97;7.63;;;0.30;83.40;;;;;;4999509;28;20584;-83
2021/03/07 07:21:32;;;;;;;10.70;8.10;;;0.40;83.30;;;;;;5003128;28;20249;-83
2021/03/07 07:23:59;;;;;;;11.40;8.23;;;0.60;81.90;;;;;;4999865;28;20253;-83
2021/03/07 07:26:26;;;;;;;10.47;7.80;;;0.50;81.90;;;;;;4993997;28;20846;-81
2021/03/07 07:28:53;;;;;;;9.77;8.03;;;0.80;82.90;;;;;;5001317;28;20204;-82
2021/03/07 07:31:23;;;;;;;10.07;8.23;;;1.00;81.20;;;;;;4999601;28;20239;-82
2021/03/07 07:33:54;;;;;;;14.37;8.40;;;1.20;81.60;;;;;;5006632;28;20200;-82
2021/03/07 07:36:29;;;;;;;11.27;8.17;;;1.30;80.70;;;;;;5004908;28;20242;-83
2021/03/07 07:38:57;;;;;;;11.17;7.73;;;1.40;80.60;;;;;;5003190;28;20203;-83
2021/03/07 07:41:38;;;;;;;11.73;8.60;;;1.40;81.00;;;;;;5001652;28;20225;-82
2021/03/07 07:44:07;;;;;;;12.10;8.97;;;1.70;80.80;;;;;;5006429;28;20198;-83
2021/03/07 07:46:34;;;;;;;12.17;8.77;;;1.90;80.00;;;;;;5002962;28;20274;-83
2021/03/07 07:49:01;;;;;;;12.43;8.80;;;2.10;79.80;;;;;;4998470;28;20741;-83
2021/03/07 07:51:36;;;;;;;12.03;8.93;;;2.40;78.90;;;;;;4994647;28;20585;-82
2021/03/07 07:54:05;;;;;;;12.80;8.57;;;2.70;76.70;;;;;;5000101;28;20238;-83
2021/03/07 07:56:41;;;;;;;12.50;9.33;;;2.90;76.00;;;;;;4997753;28;20235;-83
2021/03/07 07:59:10;;;;;;;10.80;8.40;;;3.30;76.40;;;;;;4996854;28;20680;-82
2021/03/07 08:01:54;;;;;;;10.70;7.77;;;3.70;74.90;;;;;;4998326;28;20232;-83
2021/03/07 08:04:35;;;;;;;11.70;8.93;;;4.10;68.80;;;;;;4995897;28;20207;-87
2021/03/07 08:07:04;;;;;;;10.50;8.57;;;4.60;68.90;;;;;;4995984;28;20235;-84
2021/03/07 08:09:42;;;;;;;11.33;8.70;;;4.50;67.70;;;;;;4997151;28;20222;-86
2021/03/07 08:12:41;;;;;;;13.77;9.10;;;4.90;64.00;;;;;;5000039;28;20232;-86
2021/03/07 08:15:41;;;;;;;10.97;8.80;;;4.90;65.90;;;;;;5000249;28;20223;-84
2021/03/07 08:18:09;;;;;;;11.40;8.57;;;5.10;62.90;;;;;;4996515;28;20757;-85
2021/03/07 08:21:06;;;;;;;12.17;9.23;;;4.90;66.10;;;;;;4994252;28;21030;-83
2021/03/07 08:23:57;;;;;;;11.27;9.23;;;4.70;66.70;;;;;;5000100;28;20223;-84
2021/03/07 08:26:25;;;;;;;10.97;9.03;;;4.60;69.30;;;;;;4999718;28;20227;-83
2021/03/07 08:28:52;;;;;;;11.23;8.93;;;4.60;69.30;;;;;;5002526;28;20232;-85
2021/03/07 08:31:36;;;;;;;10.50;9.13;;;4.60;69.30;;;;;;4995779;28;20235;-87
2021/03/07 08:34:22;;;;;;;12.93;9.13;;;4.50;69.20;;;;;;5003554;28;20200;-85
2021/03/07 08:37:00;;;;;;;12.37;9.33;;;4.50;73.70;;;;;;5004674;28;20322;-85
2021/03/07 08:39:30;;;;;;;12.27;8.77;;;4.60;69.30;;;;;;5017715;28;20282;-86
2021/03/07 08:42:00;;;;;;;11.97;9.63;;;4.60;69.40;;;;;;5007513;28;20690;-85
2021/03/07 08:44:27;;;;;;;11.73;9.30;;;4.80;69.50;;;;;;5006728;28;20201;-85
2021/03/07 08:46:54;;;;;;;10.73;8.33;;;4.90;69.60;;;;;;5012339;28;20234;-85
2021/03/07 08:49:25;;;;;;;10.70;8.60;;;5.10;67.20;;;;;;4991494;28;20246;-89
2021/03/07 08:51:56;;;;;;;10.50;8.27;;;5.40;66.30;;;;;;4999861;28;20268;-86
2021/03/07 08:54:23;;;;;;;13.77;9.03;;;5.80;61.70;;;;;;5001026;28;20206;-89
2021/03/07 08:56:52;;;;;;;10.73;7.97;;;6.10;61.00;;;;;;4999692;28;20262;-90
2021/03/07 08:59:24;;;;;;;9.27;8.17;;;6.20;60.40;;;;;;5003348;28;20609;-89
2021/03/07 09:01:51;;;;;;;11.00;8.40;;;7.00;57.40;;;;;;5006941;28;20237;-90
2021/03/07 09:04:17;;;;;;;8.68;7.50;;;7.60;53.20;;;;;;5011165;28;20211;-89
2021/03/07 09:06:48;;;;;;;9.70;7.65;;;8.30;50.20;;;;;;5007736;28;20240;-90
2021/03/07 09:09:17;;;;;;;36.20;12.45;;;9.40;47.80;;;;;;5013730;28;20199;-89
2021/03/07 09:11:53;;;;;;;9.30;7.90;;;9.10;45.90;;;;;;5016478;28;20294;-88
2021/03/07 09:14:27;;;;;;;14.13;8.07;;;9.50;46.70;;;;;;5016035;28;20279;-91
2021/03/07 09:16:54;;;;;;;9.23;7.60;;;10.70;41.00;;;;;;5010299;28;20222;-88
2021/03/07 09:19:34;;;;;;;9.40;7.78;;;11.60;38.60;;;;;;5009973;28;20206;-87
2021/03/07 09:22:13;;;;;;;10.98;8.93;;;12.40;36.70;;;;;;4995498;28;20231;-88
2021/03/07 09:24:55;;;;;;;10.07;7.72;;;13.50;34.80;;;;;;5026486;28;20310;-88
2021/03/07 09:27:23;;;;;;;11.02;8.15;;;13.80;31.60;;;;;;5008043;28;20219;-90
2021/03/07 09:30:16;;;;;;;9.70;8.70;;;13.20;33.00;;;;;;5007835;28;20383;-87
2021/03/07 09:32:45;;;;;;;9.55;8.55;;;13.20;33.30;;;;;;4995508;28;20227;-85
2021/03/07 09:35:23;;;;;;;10.30;8.73;;;13.30;32.90;;;;;;5011123;28;20548;-86
2021/03/07 09:37:56;;;;;;;9.25;8.45;;;13.40;32.90;;;;;;5016051;28;20207;-84
2021/03/07 09:40:22;;;;;;;9.48;8.57;;;13.70;31.40;;;;;;5007947;28;20233;-86
2021/03/07 09:42:55;;;;;;;9.57;8.68;;;14.80;31.10;;;;;;5008644;28;20230;-83
2021/03/07 09:45:22;;;;;;;10.25;9.35;;;16.40;29.00;;;;;;5005984;28;20227;-82
2021/03/07 09:47:49;;;;;;;11.40;9.95;;;17.30;27.50;;;;;;5010691;28;20208;-86
2021/03/07 09:50:16;;;;;;;10.10;9.10;;;17.30;26.10;;;;;;5002238;28;20207;-82
2021/03/07 09:52:43;;;;;;;10.55;9.57;;;17.40;29.90;;;;;;5000887;28;20215;-82
2021/03/07 09:55:11;;;;;;;10.52;9.60;;;17.90;25.40;;;;;;4998278;28;20702;-82
2021/03/07 09:57:39;;;;;;;9.75;8.85;;;18.50;25.60;;;;;;5003018;28;20574;-84
2021/03/07 10:00:07;;;;;;;9.95;9.07;;;17.70;25.60;;;;;;5006432;28;20210;-84
2021/03/07 10:02:37;;;;;;;11.63;10.52;;;17.90;25.90;;;;;;5008339;28;20207;-84
2021/03/07 10:05:14;;;;;;;10.88;9.75;;;17.70;24.70;;;;;;5023395;27;20200;-86
2021/03/07 10:07:41;;;;;;;10.48;9.38;;;16.60;28.70;;;;;;5025756;28;20212;-87
2021/03/07 10:10:11;;;;;;;10.30;9.30;;;15.90;28.60;;;;;;5016212;28;20254;-90
2021/03/07 10:12:46;;;;;;;11.20;9.45;;;16.20;28.90;;;;;;5011541;28;20208;-85
2021/03/07 10:15:22;;;;;;;10.20;9.20;;;16.30;29.00;;;;;;5014444;28;20227;-85
2021/03/07 10:17:49;;;;;;;11.95;9.75;;;16.10;28.80;;;;;;5011678;28;20200;-83
2021/03/07 10:20:16;;;;;;;10.50;9.40;;;16.10;28.80;;;;;;5011183;28;20256;-84
2021/03/07 10:22:44;;;;;;;9.93;9.02;;;17.30;29.80;;;;;;5012674;28;20284;-86
2021/03/07 10:25:24;;;;;;;10.38;9.20;;;18.00;26.00;;;;;;5010124;28;20570;-84
2021/03/07 10:27:59;;;;;;;11.57;9.63;;;18.40;26.40;;;;;;5010319;28;20202;-85
2021/03/07 10:30:34;;;;;;;10.20;9.18;;;17.60;27.80;;;;;;5002260;28;20246;-87
2021/03/07 10:33:15;;;;;;;11.15;9.55;;;18.20;26.60;;;;;;4996721;28;20218;-85
2021/03/07 10:36:04;;;;;;;11.88;9.73;;;17.40;25.90;;;;;;5008613;28;20231;-87
2021/03/07 10:38:32;;;;;;;10.55;9.48;;;16.90;29.50;;;;;;5007423;28;20667;-85
2021/03/07 10:41:00;;;;;;;11.20;10.00;;;17.70;28.00;;;;;;5007198;28;20821;-85
2021/03/07 10:43:26;;;;;;;12.68;10.02;;;18.30;27.10;;;;;;5008643;28;20207;-85
2021/03/07 10:45:53;;;;;;;9.80;8.90;;;17.20;27.30;;;;;;5003813;28;20223;-87
2021/03/07 10:48:19;;;;;;;10.68;9.40;;;16.90;28.90;;;;;;5004267;28;20196;-85
2021/03/07 10:50:47;;;;;;;10.32;9.02;;;16.90;28.70;;;;;;5007056;28;20235;-88
2021/03/07 10:53:14;;;;;;;10.18;9.15;;;16.20;28.90;;;;;;5007377;28;20204;-85
2021/03/07 10:55:41;;;;;;;12.82;8.95;;;15.70;28.40;;;;;;5000887;28;20770;-84
2021/03/07 10:58:08;;;;;;;9.80;8.73;;;15.20;30.30;;;;;;5012869;28;20200;-84
2021/03/07 11:00:35;;;;;;;11.10;8.63;;;15.50;30.00;;;;;;5012466;28;20243;-85
2021/03/07 11:03:02;;;;;;;10.23;8.90;;;15.40;29.80;;;;;;5010248;28;20218;-89
2021/03/07 11:05:29;;;;;;;10.18;9.02;;;15.10;29.70;;;;;;5008551;28;20290;-87
2021/03/07 11:07:55;;;;;;;11.52;8.95;;;14.80;31.70;;;;;;5033960;28;20288;-87
2021/03/07 11:10:23;;;;;;;9.32;8.43;;;14.80;31.70;;;;;;5013986;28;20585;-87
2021/03/07 11:12:50;;;;;;;10.55;8.98;;;14.40;31.60;;;;;;5014544;28;20208;-88
2021/03/07 11:15:18;;;;;;;11.68;9.20;;;13.70;34.10;;;;;;5017559;28;20238;-88
2021/03/07 11:17:45;;;;;;;10.00;8.95;;;13.60;33.80;;;;;;5017649;28;20725;-88
2021/03/07 11:20:13;;;;;;;11.52;8.88;;;13.40;34.20;;;;;;5008558;28;20200;-91
2021/03/07 11:22:40;;;;;;;11.95;9.23;;;13.40;36.30;;;;;;5001847;28;20314;-90
2021/03/07 11:25:07;;;;;;;11.15;8.15;;;13.40;36.40;;;;;;5000982;28;20229;-90
2021/03/07 11:27:34;;;;;;;18.02;9.25;;;13.30;36.40;;;;;;5013280;28;20204;-90
2021/03/07 11:30:01;;;;;;;13.48;10.13;;;13.40;37.20;;;;;;5011576;28;20211;-90
2021/03/07 11:32:28;;;;;;;10.55;8.60;;;13.80;35.80;;;;;;5017935;28;20218;-90
2021/03/07 11:34:55;;;;;;;11.15;8.65;;;14.20;35.40;;;;;;5009091;28;20196;-89
2021/03/07 11:37:21;;;;;;;11.27;8.80;;;13.90;34.90;;;;;;5009364;28;20223;-89
2021/03/07 11:39:48;;;;;;;10.20;8.43;;;13.50;34.70;;;;;;5014205;28;20223;-90
2021/03/07 11:42:16;;;;;;;11.38;7.97;;;13.20;35.70;;;;;;5020182;28;20274;-89
2021/03/07 11:44:42;;;;;;;12.02;8.57;;;12.80;36.40;;;;;;5007780;28;20239;-92
2021/03/07 11:47:11;;;;;;;14.60;9.00;;;12.40;38.70;;;;;;5013504;28;20239;-89
2021/03/07 11:49:40;;;;;;;11.75;8.75;;;12.00;38.90;;;;;;5007136;28;20307;-87
2021/03/07 11:52:07;;;;;;;12.68;8.80;;;11.80;41.20;;;;;;5008816;28;20566;-89
2021/03/07 11:54:35;;;;;;;12.88;8.88;;;11.70;40.80;;;;;;5005012;28;20203;-89
2021/03/07 11:57:01;;;;;;;11.82;8.55;;;11.80;41.90;;;;;;5009570;28;20313;-90
2021/03/07 11:59:28;;;;;;;11.20;8.98;;;12.10;40.20;;;;;;5012387;28;20204;-89
2021/03/07 12:01:54;;;;;;;10.52;8.68;;;12.10;39.50;;;;;;5009407;28;20235;-90
2021/03/07 12:04:20;;;;;;;12.38;8.02;;;12.10;41.10;;;;;;5006421;28;20209;-89
2021/03/07 12:06:49;;;;;;;11.02;7.82;;;12.30;40.30;;;;;;5003256;28;20311;-89
2021/03/07 12:09:15;;;;;;;11.07;8.35;;;12.20;40.10;;;;;;5016124;28;20401;-87
2021/03/07 12:11:42;;;;;;;13.60;9.25;;;12.20;39.60;;;;;;5002753;28;20228;-87
2021/03/07 12:14:09;;;;;;;21.38;15.52;;;12.30;40.60;;;;;;5012879;28;20214;-89
2021/03/07 12:16:35;;;;;;;12.60;8.88;;;12.30;40.00;;;;;;5007628;28;20219;-88
2021/03/07 12:19:02;;;;;;;11.50;8.80;;;12.20;40.50;;;;;;5007550;28;20199;-89
2021/03/07 12:21:29;;;;;;;10.77;7.97;;;12.20;40.70;;;;;;5008150;28;20297;-86
2021/03/07 12:23:57;;;;;;;14.57;9.85;;;12.00;40.30;;;;;;5011694;28;20278;-88
2021/03/07 12:26:23;;;;;;;12.40;9.32;;;11.90;40.60;;;;;;5013106;28;20227;-87
2021/03/07 12:28:55;;;;;;;14.73;10.00;;;12.00;41.30;;;;;;5014488;28;20211;-88
2021/03/07 12:31:22;;;;;;;10.73;8.98;;;12.20;40.40;;;;;;5018115;28;20298;-89
2021/03/07 12:33:48;;;;;;;18.17;10.82;;;12.20;41.30;;;;;;5021054;28;20212;-89
2021/03/07 12:36:15;;;;;;;11.30;9.15;;;12.30;42.60;;;;;;5021817;28;20314;-88
2021/03/07 12:38:49;;;;;;;15.70;9.68;;;12.20;43.10;;;;;;5029223;28;20289;-90
2021/03/07 12:41:17;;;;;;;10.98;8.90;;;12.60;40.80;;;;;;5016643;28;20692;-87
2021/03/07 12:43:43;;;;;;;18.77;9.43;;;12.60;40.20;;;;;;5020349;28;20286;-87
2021/03/07 12:46:10;;;;;;;16.23;9.90;;;12.40;43.00;;;;;;5019517;28;20286;-88
2021/03/07 12:48:36;;;;;;;18.60;9.32;;;12.80;42.30;;;;;;5023861;28;20207;-88
2021/03/07 12:51:04;;;;;;;11.57;8.73;;;13.00;40.80;;;;;;5020823;28;20318;-89
2021/03/07 12:53:30;;;;;;;12.18;9.45;;;13.00;41.10;;;;;;5010138;28;20263;-90